Main page
METAR-TAF:

METAR-TAF

Airports :

Eloy Alfaro International Airport

Manta, Ecuador

latitude: 00-57S, longitude: 080-41W, elevation: 13 m

Current weather observation

The report was made 42 minutes ago, at 05:00 UTC
Wind 11 kt from the South/Southwest
Temperature 23°C
Humidity 83%
Pressure 1014 hPa
Visibility 10 km or more
Broken clouds at a height of 2000 ft

METAR: SEMT 230500Z 20011KT 9999 BKN020 23/20 Q1014

Time: 00:42 (05:42 UTC)

Forecast

The report was made 1 hour and 17 minutes ago, at 04:25 UTC
Forecast valid from 23 at 06 UTC to 24 at 06 UTC
Wind 10 kt from the South/Southwest
Visibility 10 km or more
Broken clouds at a height of 2000 ft
Becoming
from 23 at 14 UTC to 23 at 16 UTC
Wind 6 kt from the West
Scattered clouds at a height of 2000 ft
Becoming
from 24 at 00 UTC to 24 at 02 UTC
Wind 10 kt from the South/Southwest
Broken clouds at a height of 2000 ft

TAF: SEMT 230425Z 2306/2406 21010KT 9999 BKN020 BECMG 2314/2316 26006KT SCT020 BECMG 2400/2402 21010KT BKN020 TX28/2320Z TN22/2310Z

Weather observations and forecasts of more than 4000 airports (METAR and TAF reports).

The available stations are represented by yellow and red dots on the map.

Hover mouse over dot to see the name of the station.

Then click to see weather observations and forecasts.

To change the map : click on the green buttons with a black cross to zoom in, on the green button with a dash to zoom out, or on the green arrows for adjacent maps.


METAR-TAF: